sensor_id;sensor_type;location;lat;lon;timestamp;temperature;humidity
67163;DHT22;54092;53.088;8.850;2022-12-07T00:02:17;4.50;99.90
67163;DHT22;54092;53.088;8.850;2022-12-07T00:04:43;4.50;99.90
67163;DHT22;54092;53.088;8.850;2022-12-07T00:07:09;4.40;99.90
67163;DHT22;54092;53.088;8.850;2022-12-07T00:09:34;4.40;99.90
67163;DHT22;54092;53.088;8.850;2022-12-07T00:12:00;4.40;99.90
67163;DHT22;54092;53.088;8.850;2022-12-07T00:14:25;4.30;99.90
67163;DHT22;54092;53.088;8.850;2022-12-07T00:16:51;4.30;99.90
67163;DHT22;54092;53.088;8.850;2022-12-07T00:19:17;4.20;99.90
67163;DHT22;54092;53.088;8.850;2022-12-07T00:21:43;4.20;99.90
67163;DHT22;54092;53.088;8.850;2022-12-07T00:24:09;4.20;99.90
67163;DHT22;54092;53.088;8.850;2022-12-07T00:26:37;4.20;99.90
67163;DHT22;54092;53.088;8.850;2022-12-07T00:29:06;4.20;99.90
67163;DHT22;54092;53.088;8.850;2022-12-07T00:31:34;4.20;99.90
67163;DHT22;54092;53.088;8.850;2022-12-07T00:34:07;4.10;99.90
67163;DHT22;54092;53.088;8.850;2022-12-07T00:36:36;4.10;99.90
67163;DHT22;54092;53.088;8.850;2022-12-07T00:39:02;4.10;99.90
67163;DHT22;54092;53.088;8.850;2022-12-07T00:41:28;4.10;99.90
67163;DHT22;54092;53.088;8.850;2022-12-07T00:43:54;4.10;99.90
67163;DHT22;54092;53.088;8.850;2022-12-07T00:46:20;4.10;99.90
67163;DHT22;54092;53.088;8.850;2022-12-07T00:48:47;4.10;99.90
67163;DHT22;54092;53.088;8.850;2022-12-07T00:51:14;4.20;99.90
67163;DHT22;54092;53.088;8.850;2022-12-07T00:53:40;4.20;99.90
67163;DHT22;54092;53.088;8.850;2022-12-07T00:56:12;4.20;99.90
67163;DHT22;54092;53.088;8.850;2022-12-07T00:58:38;4.20;99.90
67163;DHT22;54092;53.088;8.850;2022-12-07T01:01:05;4.20;99.90
67163;DHT22;54092;53.088;8.850;2022-12-07T01:03:31;4.10;99.90
67163;DHT22;54092;53.088;8.850;2022-12-07T01:05:57;4.10;99.90
67163;DHT22;54092;53.088;8.850;2022-12-07T01:08:25;4.00;99.90
67163;DHT22;54092;53.088;8.850;2022-12-07T01:11:19;3.90;99.90
67163;DHT22;54092;53.088;8.850;2022-12-07T01:13:45;3.90;99.90
67163;DHT22;54092;53.088;8.850;2022-12-07T01:16:13;3.90;99.90
67163;DHT22;54092;53.088;8.850;2022-12-07T01:18:39;3.90;99.90
67163;DHT22;54092;53.088;8.850;2022-12-07T01:21:07;3.90;99.90
67163;DHT22;54092;53.088;8.850;2022-12-07T01:23:34;3.90;99.90
67163;DHT22;54092;53.088;8.850;2022-12-07T01:26:05;3.90;99.90
67163;DHT22;54092;53.088;8.850;2022-12-07T01:28:32;3.90;99.90
67163;DHT22;54092;53.088;8.850;2022-12-07T01:31:12;4.00;99.90
67163;DHT22;54092;53.088;8.850;2022-12-07T01:33:40;4.00;99.90
67163;DHT22;54092;53.088;8.850;2022-12-07T01:36:15;4.00;99.90
67163;DHT22;54092;53.088;8.850;2022-12-07T01:38:41;4.00;99.90
67163;DHT22;54092;53.088;8.850;2022-12-07T01:41:07;4.00;99.90
67163;DHT22;54092;53.088;8.850;2022-12-07T01:43:33;4.00;99.90
67163;DHT22;54092;53.088;8.850;2022-12-07T01:46:00;4.00;99.90
67163;DHT22;54092;53.088;8.850;2022-12-07T01:48:40;4.00;99.90
67163;DHT22;54092;53.088;8.850;2022-12-07T01:51:11;3.90;99.90
67163;DHT22;54092;53.088;8.850;2022-12-07T01:53:41;3.90;99.90
67163;DHT22;54092;53.088;8.850;2022-12-07T01:56:10;3.90;99.90
67163;DHT22;54092;53.088;8.850;2022-12-07T01:58:36;3.90;99.90
67163;DHT22;54092;53.088;8.850;2022-12-07T02:01:02;3.80;99.90
67163;DHT22;54092;53.088;8.850;2022-12-07T02:03:54;3.80;99.90
67163;DHT22;54092;53.088;8.850;2022-12-07T02:06:23;3.80;99.90
67163;DHT22;54092;53.088;8.850;2022-12-07T02:08:49;3.80;99.90
67163;DHT22;54092;53.088;8.850;2022-12-07T02:11:15;3.70;99.90
67163;DHT22;54092;53.088;8.850;2022-12-07T02:13:43;3.70;99.90
67163;DHT22;54092;53.088;8.850;2022-12-07T02:16:45;3.70;99.90
67163;DHT22;54092;53.088;8.850;2022-12-07T02:28:00;3.60;99.90
67163;DHT22;54092;53.088;8.850;2022-12-07T02:30:32;3.60;99.90
67163;DHT22;54092;53.088;8.850;2022-12-07T02:33:07;3.60;99.90
67163;DHT22;54092;53.088;8.850;2022-12-07T02:36:25;3.60;99.90
67163;DHT22;54092;53.088;8.850;2022-12-07T02:41:19;3.60;99.90
67163;DHT22;54092;53.088;8.850;2022-12-07T02:43:50;3.60;99.90
67163;DHT22;54092;53.088;8.850;2022-12-07T02:46:32;3.60;99.90
67163;DHT22;54092;53.088;8.850;2022-12-07T02:48:59;3.70;99.90
67163;DHT22;54092;53.088;8.850;2022-12-07T02:51:25;3.70;99.90
67163;DHT22;54092;53.088;8.850;2022-12-07T02:53:51;3.70;99.90
67163;DHT22;54092;53.088;8.850;2022-12-07T02:56:45;3.70;99.90
67163;DHT22;54092;53.088;8.850;2022-12-07T02:59:44;3.70;99.90
67163;DHT22;54092;53.088;8.850;2022-12-07T03:05:09;3.70;99.90
67163;DHT22;54092;53.088;8.850;2022-12-07T03:15:39;3.80;99.90
67163;DHT22;54092;53.088;8.850;2022-12-07T03:18:08;3.80;99.90
67163;DHT22;54092;53.088;8.850;2022-12-07T03:20:38;3.80;99.90
67163;DHT22;54092;53.088;8.850;2022-12-07T03:23:06;3.80;99.90
67163;DHT22;54092;53.088;8.850;2022-12-07T03:25:37;3.80;99.90
67163;DHT22;54092;53.088;8.850;2022-12-07T03:28:06;3.90;99.90
67163;DHT22;54092;53.088;8.850;2022-12-07T03:30:39;3.90;99.90
67163;DHT22;54092;53.088;8.850;2022-12-07T03:33:31;3.80;99.90
67163;DHT22;54092;53.088;8.850;2022-12-07T03:38:45;3.90;99.90
67163;DHT22;54092;53.088;8.850;2022-12-07T03:41:16;3.80;99.90
67163;DHT22;54092;53.088;8.850;2022-12-07T03:43:44;3.90;99.90
67163;DHT22;54092;53.088;8.850;2022-12-07T03:51:55;4.00;99.90
67163;DHT22;54092;53.088;8.850;2022-12-07T03:54:41;4.00;99.90
67163;DHT22;54092;53.088;8.850;2022-12-07T03:57:09;4.00;99.90
67163;DHT22;54092;53.088;8.850;2022-12-07T03:59:37;4.10;99.90
67163;DHT22;54092;53.088;8.850;2022-12-07T04:02:06;4.10;99.90
67163;DHT22;54092;53.088;8.850;2022-12-07T04:04:32;4.10;99.90
67163;DHT22;54092;53.088;8.850;2022-12-07T04:06:58;4.00;99.90
67163;DHT22;54092;53.088;8.850;2022-12-07T04:09:23;4.00;99.90
67163;DHT22;54092;53.088;8.850;2022-12-07T04:11:49;3.90;99.90
67163;DHT22;54092;53.088;8.850;2022-12-07T04:14:15;3.90;99.90
67163;DHT22;54092;53.088;8.850;2022-12-07T04:16:44;3.90;99.90
67163;DHT22;54092;53.088;8.850;2022-12-07T04:19:09;3.80;99.90
67163;DHT22;54092;53.088;8.850;2022-12-07T04:21:35;3.80;99.90
67163;DHT22;54092;53.088;8.850;2022-12-07T04:24:00;3.70;99.90
67163;DHT22;54092;53.088;8.850;2022-12-07T04:26:26;3.70;99.90
67163;DHT22;54092;53.088;8.850;2022-12-07T04:28:51;3.60;99.90
67163;DHT22;54092;53.088;8.850;2022-12-07T04:31:17;3.60;99.90
67163;DHT22;54092;53.088;8.850;2022-12-07T04:33:43;3.60;99.90
67163;DHT22;54092;53.088;8.850;2022-12-07T04:36:08;3.60;99.90
67163;DHT22;54092;53.088;8.850;2022-12-07T04:38:34;3.60;99.90
67163;DHT22;54092;53.088;8.850;2022-12-07T04:41:07;3.60;99.90
67163;DHT22;54092;53.088;8.850;2022-12-07T04:43:33;3.60;99.90
67163;DHT22;54092;53.088;8.850;2022-12-07T04:45:59;3.60;99.90
67163;DHT22;54092;53.088;8.850;2022-12-07T04:48:25;3.70;99.90
67163;DHT22;54092;53.088;8.850;2022-12-07T04:50:51;3.70;99.90
67163;DHT22;54092;53.088;8.850;2022-12-07T04:53:16;3.70;99.90
67163;DHT22;54092;53.088;8.850;2022-12-07T04:55:42;3.70;99.90
67163;DHT22;54092;53.088;8.850;2022-12-07T04:58:08;3.60;99.90
67163;DHT22;54092;53.088;8.850;2022-12-07T05:00:33;3.70;99.90
67163;DHT22;54092;53.088;8.850;2022-12-07T05:03:02;3.60;99.90
67163;DHT22;54092;53.088;8.850;2022-12-07T05:05:28;3.70;99.90
67163;DHT22;54092;53.088;8.850;2022-12-07T05:07:53;3.70;99.90
67163;DHT22;54092;53.088;8.850;2022-12-07T05:10:19;3.70;99.90
67163;DHT22;54092;53.088;8.850;2022-12-07T05:12:44;3.70;99.90
67163;DHT22;54092;53.088;8.850;2022-12-07T05:15:11;3.60;99.90
67163;DHT22;54092;53.088;8.850;2022-12-07T05:17:37;3.60;99.90
67163;DHT22;54092;53.088;8.850;2022-12-07T05:20:03;3.60;99.90
67163;DHT22;54092;53.088;8.850;2022-12-07T05:22:29;3.60;99.90
67163;DHT22;54092;53.088;8.850;2022-12-07T05:24:55;3.60;99.90
67163;DHT22;54092;53.088;8.850;2022-12-07T05:27:21;3.50;99.90
67163;DHT22;54092;53.088;8.850;2022-12-07T05:29:46;3.40;99.90
67163;DHT22;54092;53.088;8.850;2022-12-07T05:32:12;3.40;99.90
67163;DHT22;54092;53.088;8.850;2022-12-07T05:34:38;3.40;99.90
67163;DHT22;54092;53.088;8.850;2022-12-07T05:37:03;3.30;99.90
67163;DHT22;54092;53.088;8.850;2022-12-07T05:39:29;3.30;99.90
67163;DHT22;54092;53.088;8.850;2022-12-07T05:41:54;3.30;99.90
67163;DHT22;54092;53.088;8.850;2022-12-07T05:44:43;3.30;99.90
67163;DHT22;54092;53.088;8.850;2022-12-07T05:47:09;3.30;99.90
67163;DHT22;54092;53.088;8.850;2022-12-07T05:49:35;3.30;99.90
67163;DHT22;54092;53.088;8.850;2022-12-07T05:52:01;3.40;99.90
67163;DHT22;54092;53.088;8.850;2022-12-07T05:54:26;3.30;99.90
67163;DHT22;54092;53.088;8.850;2022-12-07T05:56:52;3.40;99.90
67163;DHT22;54092;53.088;8.850;2022-12-07T05:59:18;3.30;99.90
67163;DHT22;54092;53.088;8.850;2022-12-07T06:01:58;3.20;99.90
67163;DHT22;54092;53.088;8.850;2022-12-07T06:04:27;3.30;99.90
67163;DHT22;54092;53.088;8.850;2022-12-07T06:06:54;3.30;99.90
67163;DHT22;54092;53.088;8.850;2022-12-07T06:09:20;3.30;99.90
67163;DHT22;54092;53.088;8.850;2022-12-07T06:11:46;3.30;99.90
67163;DHT22;54092;53.088;8.850;2022-12-07T06:14:31;3.30;99.90
67163;DHT22;54092;53.088;8.850;2022-12-07T06:16:56;3.40;99.90
67163;DHT22;54092;53.088;8.850;2022-12-07T06:19:22;3.40;99.90
67163;DHT22;54092;53.088;8.850;2022-12-07T06:21:47;3.40;99.90
67163;DHT22;54092;53.088;8.850;2022-12-07T06:24:15;3.40;99.90
67163;DHT22;54092;53.088;8.850;2022-12-07T06:26:41;3.40;99.90
67163;DHT22;54092;53.088;8.850;2022-12-07T06:29:08;3.50;99.90
67163;DHT22;54092;53.088;8.850;2022-12-07T06:31:33;3.60;99.90
67163;DHT22;54092;53.088;8.850;2022-12-07T06:34:01;3.60;99.90
67163;DHT22;54092;53.088;8.850;2022-12-07T06:36:27;3.60;99.90
67163;DHT22;54092;53.088;8.850;2022-12-07T06:38:53;3.60;99.90
67163;DHT22;54092;53.088;8.850;2022-12-07T06:41:19;3.60;99.90
67163;DHT22;54092;53.088;8.850;2022-12-07T06:43:44;3.60;99.90
67163;DHT22;54092;53.088;8.850;2022-12-07T06:46:10;3.60;99.90
67163;DHT22;54092;53.088;8.850;2022-12-07T06:48:35;3.50;99.90
67163;DHT22;54092;53.088;8.850;2022-12-07T06:51:01;3.50;99.90
67163;DHT22;54092;53.088;8.850;2022-12-07T06:53:27;3.50;99.90
67163;DHT22;54092;53.088;8.850;2022-12-07T06:55:52;3.50;99.90
67163;DHT22;54092;53.088;8.850;2022-12-07T06:58:18;3.50;99.90
67163;DHT22;54092;53.088;8.850;2022-12-07T07:00:44;3.40;99.90
67163;DHT22;54092;53.088;8.850;2022-12-07T07:03:10;3.50;99.90
67163;DHT22;54092;53.088;8.850;2022-12-07T07:05:35;3.40;99.90
67163;DHT22;54092;53.088;8.850;2022-12-07T07:08:01;3.40;99.90
67163;DHT22;54092;53.088;8.850;2022-12-07T07:10:27;3.40;99.90
67163;DHT22;54092;53.088;8.850;2022-12-07T07:12:53;3.40;99.90
67163;DHT22;54092;53.088;8.850;2022-12-07T07:15:19;3.40;99.90
67163;DHT22;54092;53.088;8.850;2022-12-07T07:17:45;3.40;99.90
67163;DHT22;54092;53.088;8.850;2022-12-07T07:20:11;3.40;99.90
67163;DHT22;54092;53.088;8.850;2022-12-07T07:22:37;3.40;99.90
67163;DHT22;54092;53.088;8.850;2022-12-07T07:25:02;3.40;99.90
67163;DHT22;54092;53.088;8.850;2022-12-07T07:27:28;3.40;99.90
67163;DHT22;54092;53.088;8.850;2022-12-07T07:29:54;3.40;99.90
67163;DHT22;54092;53.088;8.850;2022-12-07T07:32:19;3.40;99.90
67163;DHT22;54092;53.088;8.850;2022-12-07T07:34:47;3.40;99.90
67163;DHT22;54092;53.088;8.850;2022-12-07T07:37:12;3.30;99.90
67163;DHT22;54092;53.088;8.850;2022-12-07T07:39:38;3.30;99.90
67163;DHT22;54092;53.088;8.850;2022-12-07T07:42:04;3.30;99.90
67163;DHT22;54092;53.088;8.850;2022-12-07T07:44:29;3.30;99.90
67163;DHT22;54092;53.088;8.850;2022-12-07T07:46:55;3.30;99.90
67163;DHT22;54092;53.088;8.850;2022-12-07T07:49:21;3.30;99.90
67163;DHT22;54092;53.088;8.850;2022-12-07T07:51:46;3.30;99.90
67163;DHT22;54092;53.088;8.850;2022-12-07T07:54:12;3.30;99.90
67163;DHT22;54092;53.088;8.850;2022-12-07T07:56:37;3.30;99.90
67163;DHT22;54092;53.088;8.850;2022-12-07T07:59:03;3.30;99.90
67163;DHT22;54092;53.088;8.850;2022-12-07T08:01:28;3.40;99.90
67163;DHT22;54092;53.088;8.850;2022-12-07T08:03:54;3.40;99.90
67163;DHT22;54092;53.088;8.850;2022-12-07T08:06:19;3.40;99.90
67163;DHT22;54092;53.088;8.850;2022-12-07T08:08:45;3.50;99.90
67163;DHT22;54092;53.088;8.850;2022-12-07T08:11:11;3.50;99.90
67163;DHT22;54092;53.088;8.850;2022-12-07T08:13:36;3.50;99.90
67163;DHT22;54092;53.088;8.850;2022-12-07T08:16:07;3.50;99.90
67163;DHT22;54092;53.088;8.850;2022-12-07T08:18:38;3.60;99.90
67163;DHT22;54092;53.088;8.850;2022-12-07T08:21:05;3.60;99.90
67163;DHT22;54092;53.088;8.850;2022-12-07T08:23:31;3.60;99.90
67163;DHT22;54092;53.088;8.850;2022-12-07T08:26:04;3.60;99.90
67163;DHT22;54092;53.088;8.850;2022-12-07T08:28:30;3.60;99.90
67163;DHT22;54092;53.088;8.850;2022-12-07T08:31:03;3.60;99.90
67163;DHT22;54092;53.088;8.850;2022-12-07T08:33:29;3.60;99.90
67163;DHT22;54092;53.088;8.850;2022-12-07T08:35:59;3.60;99.90
67163;DHT22;54092;53.088;8.850;2022-12-07T08:38:25;3.60;99.90
67163;DHT22;54092;53.088;8.850;2022-12-07T08:40:57;3.60;99.90
67163;DHT22;54092;53.088;8.850;2022-12-07T08:43:23;3.60;99.90
67163;DHT22;54092;53.088;8.850;2022-12-07T08:45:54;3.60;99.90
67163;DHT22;54092;53.088;8.850;2022-12-07T08:48:23;3.60;99.90
67163;DHT22;54092;53.088;8.850;2022-12-07T08:50:50;3.60;99.90
67163;DHT22;54092;53.088;8.850;2022-12-07T08:53:17;3.60;99.90
67163;DHT22;54092;53.088;8.850;2022-12-07T08:55:46;3.70;99.90
67163;DHT22;54092;53.088;8.850;2022-12-07T08:58:12;3.70;99.90
67163;DHT22;54092;53.088;8.850;2022-12-07T09:00:37;3.80;99.90
67163;DHT22;54092;53.088;8.850;2022-12-07T09:03:03;3.80;99.90
67163;DHT22;54092;53.088;8.850;2022-12-07T09:05:29;3.90;99.90
67163;DHT22;54092;53.088;8.850;2022-12-07T09:07:57;4.00;99.90
67163;DHT22;54092;53.088;8.850;2022-12-07T09:10:24;4.00;99.90
67163;DHT22;54092;53.088;8.850;2022-12-07T09:12:51;4.00;99.90
67163;DHT22;54092;53.088;8.850;2022-12-07T09:15:17;4.00;99.90
67163;DHT22;54092;53.088;8.850;2022-12-07T09:17:42;4.00;99.90
67163;DHT22;54092;53.088;8.850;2022-12-07T09:20:08;4.00;99.90
67163;DHT22;54092;53.088;8.850;2022-12-07T09:22:34;4.00;99.90
67163;DHT22;54092;53.088;8.850;2022-12-07T09:25:00;4.00;99.90
67163;DHT22;54092;53.088;8.850;2022-12-07T09:27:26;4.00;99.90
67163;DHT22;54092;53.088;8.850;2022-12-07T09:29:52;4.00;99.90
67163;DHT22;54092;53.088;8.850;2022-12-07T09:32:18;4.10;99.90
67163;DHT22;54092;53.088;8.850;2022-12-07T09:34:43;4.10;99.90
67163;DHT22;54092;53.088;8.850;2022-12-07T09:37:09;4.40;99.90
67163;DHT22;54092;53.088;8.850;2022-12-07T09:39:39;4.60;99.90
67163;DHT22;54092;53.088;8.850;2022-12-07T09:42:06;4.60;99.90
67163;DHT22;54092;53.088;8.850;2022-12-07T09:44:33;4.60;99.90
67163;DHT22;54092;53.088;8.850;2022-12-07T09:46:59;5.00;99.90
67163;DHT22;54092;53.088;8.850;2022-12-07T09:49:28;5.70;99.90
67163;DHT22;54092;53.088;8.850;2022-12-07T09:52:01;5.70;99.90
67163;DHT22;54092;53.088;8.850;2022-12-07T09:54:28;5.50;99.90
67163;DHT22;54092;53.088;8.850;2022-12-07T09:56:54;5.50;99.90
67163;DHT22;54092;53.088;8.850;2022-12-07T09:59:20;5.50;99.90
67163;DHT22;54092;53.088;8.850;2022-12-07T10:01:49;5.30;99.90
67163;DHT22;54092;53.088;8.850;2022-12-07T10:04:21;5.00;99.90
67163;DHT22;54092;53.088;8.850;2022-12-07T10:06:48;5.00;99.90
67163;DHT22;54092;53.088;8.850;2022-12-07T10:09:15;5.40;99.90
67163;DHT22;54092;53.088;8.850;2022-12-07T10:12:10;5.60;99.90
67163;DHT22;54092;53.088;8.850;2022-12-07T10:15:03;6.30;99.90
67163;DHT22;54092;53.088;8.850;2022-12-07T10:17:32;6.90;99.90
67163;DHT22;54092;53.088;8.850;2022-12-07T10:20:25;6.80;99.90
67163;DHT22;54092;53.088;8.850;2022-12-07T10:22:59;6.40;99.90
67163;DHT22;54092;53.088;8.850;2022-12-07T10:25:31;6.00;99.90
67163;DHT22;54092;53.088;8.850;2022-12-07T10:30:33;5.20;99.90
67163;DHT22;54092;53.088;8.850;2022-12-07T10:32:59;5.00;99.90
67163;DHT22;54092;53.088;8.850;2022-12-07T10:35:29;4.90;99.90
67163;DHT22;54092;53.088;8.850;2022-12-07T10:37:58;4.80;99.90
67163;DHT22;54092;53.088;8.850;2022-12-07T10:40:34;4.80;99.90
67163;DHT22;54092;53.088;8.850;2022-12-07T10:43:18;4.90;99.90
67163;DHT22;54092;53.088;8.850;2022-12-07T10:48:51;5.70;99.90
67163;DHT22;54092;53.088;8.850;2022-12-07T10:56:49;5.80;99.90
67163;DHT22;54092;53.088;8.850;2022-12-07T11:07:47;6.20;99.90
67163;DHT22;54092;53.088;8.850;2022-12-07T11:16:18;5.90;99.90
67163;DHT22;54092;53.088;8.850;2022-12-07T11:18:59;5.80;99.90
67163;DHT22;54092;53.088;8.850;2022-12-07T11:21:56;5.80;99.90
67163;DHT22;54092;53.088;8.850;2022-12-07T11:24:56;5.70;99.90
67163;DHT22;54092;53.088;8.850;2022-12-07T11:32:51;4.90;99.90
67163;DHT22;54092;53.088;8.850;2022-12-07T11:38:13;4.90;99.90
67163;DHT22;54092;53.088;8.850;2022-12-07T11:40:41;5.00;99.90
67163;DHT22;54092;53.088;8.850;2022-12-07T11:43:26;5.40;99.90
67163;DHT22;54092;53.088;8.850;2022-12-07T11:46:04;6.00;99.90
67163;DHT22;54092;53.088;8.850;2022-12-07T11:48:41;6.10;99.90
67163;DHT22;54092;53.088;8.850;2022-12-07T11:51:11;5.90;99.90
67163;DHT22;54092;53.088;8.850;2022-12-07T11:54:14;5.80;99.90
67163;DHT22;54092;53.088;8.850;2022-12-07T11:56:42;5.60;99.90
67163;DHT22;54092;53.088;8.850;2022-12-07T11:59:13;5.60;99.90
67163;DHT22;54092;53.088;8.850;2022-12-07T12:02:15;5.70;99.90
67163;DHT22;54092;53.088;8.850;2022-12-07T12:05:14;5.90;99.90
67163;DHT22;54092;53.088;8.850;2022-12-07T12:07:42;6.20;99.90
67163;DHT22;54092;53.088;8.850;2022-12-07T12:10:38;6.50;99.90
67163;DHT22;54092;53.088;8.850;2022-12-07T12:16:18;6.90;99.90
67163;DHT22;54092;53.088;8.850;2022-12-07T12:18:55;6.90;99.90
67163;DHT22;54092;53.088;8.850;2022-12-07T12:21:27;7.00;99.90
67163;DHT22;54092;53.088;8.850;2022-12-07T12:24:03;7.00;99.90
67163;DHT22;54092;53.088;8.850;2022-12-07T12:26:32;6.90;99.90
67163;DHT22;54092;53.088;8.850;2022-12-07T12:30:03;6.60;99.90
67163;DHT22;54092;53.088;8.850;2022-12-07T12:32:17;6.50;99.90
67163;DHT22;54092;53.088;8.850;2022-12-07T12:42:55;6.10;99.90
67163;DHT22;54092;53.088;8.850;2022-12-07T12:48:03;5.70;99.90
67163;DHT22;54092;53.088;8.850;2022-12-07T12:50:33;5.50;99.90
67163;DHT22;54092;53.088;8.850;2022-12-07T12:53:03;5.20;99.90
67163;DHT22;54092;53.088;8.850;2022-12-07T13:00:47;4.70;99.90
67163;DHT22;54092;53.088;8.850;2022-12-07T13:03:29;4.50;99.90
67163;DHT22;54092;53.088;8.850;2022-12-07T13:08:46;4.40;99.90
67163;DHT22;54092;53.088;8.850;2022-12-07T13:11:19;4.40;99.90
67163;DHT22;54092;53.088;8.850;2022-12-07T13:13:45;4.40;99.90
67163;DHT22;54092;53.088;8.850;2022-12-07T13:18:37;4.50;99.90
67163;DHT22;54092;53.088;8.850;2022-12-07T13:26:15;4.50;99.90
67163;DHT22;54092;53.088;8.850;2022-12-07T13:28:43;4.50;99.90
67163;DHT22;54092;53.088;8.850;2022-12-07T13:31:18;4.50;99.90
67163;DHT22;54092;53.088;8.850;2022-12-07T13:33:46;4.40;99.90
67163;DHT22;54092;53.088;8.850;2022-12-07T13:36:24;4.40;99.90
67163;DHT22;54092;53.088;8.850;2022-12-07T13:38:55;4.40;99.90
67163;DHT22;54092;53.088;8.850;2022-12-07T13:41:29;4.40;99.90
67163;DHT22;54092;53.088;8.850;2022-12-07T13:44:17;4.40;99.90
67163;DHT22;54092;53.088;8.850;2022-12-07T13:49:20;4.40;99.90
67163;DHT22;54092;53.088;8.850;2022-12-07T13:51:47;4.30;99.90
67163;DHT22;54092;53.088;8.850;2022-12-07T13:54:13;4.30;99.90
67163;DHT22;54092;53.088;8.850;2022-12-07T13:56:40;4.40;99.90
67163;DHT22;54092;53.088;8.850;2022-12-07T14:01:46;4.40;99.90
67163;DHT22;54092;53.088;8.850;2022-12-07T14:04:31;4.50;99.90
67163;DHT22;54092;53.088;8.850;2022-12-07T14:06:57;4.40;99.90
67163;DHT22;54092;53.088;8.850;2022-12-07T14:09:25;4.50;99.90
67163;DHT22;54092;53.088;8.850;2022-12-07T14:11:56;4.60;99.90
67163;DHT22;54092;53.088;8.850;2022-12-07T14:14:27;4.60;99.90
67163;DHT22;54092;53.088;8.850;2022-12-07T14:16:58;4.60;99.90
67163;DHT22;54092;53.088;8.850;2022-12-07T14:19:46;4.60;99.90
67163;DHT22;54092;53.088;8.850;2022-12-07T14:27:33;4.50;99.90
67163;DHT22;54092;53.088;8.850;2022-12-07T14:30:03;4.50;99.90
67163;DHT22;54092;53.088;8.850;2022-12-07T14:32:29;4.50;99.90
67163;DHT22;54092;53.088;8.850;2022-12-07T14:37:33;4.40;99.90
67163;DHT22;54092;53.088;8.850;2022-12-07T14:39:59;4.40;99.90
67163;DHT22;54092;53.088;8.850;2022-12-07T14:42:28;4.30;99.90
67163;DHT22;54092;53.088;8.850;2022-12-07T14:44:55;4.10;99.90
67163;DHT22;54092;53.088;8.850;2022-12-07T14:47:21;4.00;99.90
67163;DHT22;54092;53.088;8.850;2022-12-07T14:49:46;3.90;99.90
67163;DHT22;54092;53.088;8.850;2022-12-07T14:52:21;3.90;99.90
67163;DHT22;54092;53.088;8.850;2022-12-07T14:54:48;3.80;99.90
67163;DHT22;54092;53.088;8.850;2022-12-07T14:57:14;3.70;99.90
67163;DHT22;54092;53.088;8.850;2022-12-07T14:59:40;3.70;99.90
67163;DHT22;54092;53.088;8.850;2022-12-07T15:02:06;3.60;99.90
67163;DHT22;54092;53.088;8.850;2022-12-07T15:04:34;3.60;99.90
67163;DHT22;54092;53.088;8.850;2022-12-07T15:07:02;3.50;99.90
67163;DHT22;54092;53.088;8.850;2022-12-07T15:09:28;3.50;99.90
67163;DHT22;54092;53.088;8.850;2022-12-07T15:11:53;3.50;99.90
67163;DHT22;54092;53.088;8.850;2022-12-07T15:14:19;3.50;99.90
67163;DHT22;54092;53.088;8.850;2022-12-07T15:16:45;3.50;99.90
67163;DHT22;54092;53.088;8.850;2022-12-07T15:19:16;3.50;99.90
67163;DHT22;54092;53.088;8.850;2022-12-07T15:21:42;3.50;99.90
67163;DHT22;54092;53.088;8.850;2022-12-07T15:24:09;3.50;99.90
67163;DHT22;54092;53.088;8.850;2022-12-07T15:26:36;3.50;99.90
67163;DHT22;54092;53.088;8.850;2022-12-07T15:29:03;3.40;99.90
67163;DHT22;54092;53.088;8.850;2022-12-07T15:31:29;3.40;99.90
67163;DHT22;54092;53.088;8.850;2022-12-07T15:33:54;3.40;99.90
67163;DHT22;54092;53.088;8.850;2022-12-07T15:36:25;3.40;99.90
67163;DHT22;54092;53.088;8.850;2022-12-07T15:38:51;3.30;99.90
67163;DHT22;54092;53.088;8.850;2022-12-07T15:41:17;3.30;99.90
67163;DHT22;54092;53.088;8.850;2022-12-07T15:43:44;3.30;99.90
67163;DHT22;54092;53.088;8.850;2022-12-07T15:46:36;3.30;99.90
67163;DHT22;54092;53.088;8.850;2022-12-07T15:49:04;3.20;99.90
67163;DHT22;54092;53.088;8.850;2022-12-07T15:51:29;3.20;99.90
67163;DHT22;54092;53.088;8.850;2022-12-07T15:53:57;3.20;99.90
67163;DHT22;54092;53.088;8.850;2022-12-07T15:56:22;3.10;99.90
67163;DHT22;54092;53.088;8.850;2022-12-07T15:58:48;3.10;99.90
67163;DHT22;54092;53.088;8.850;2022-12-07T16:01:18;3.00;99.90
67163;DHT22;54092;53.088;8.850;2022-12-07T16:03:45;3.00;99.90
67163;DHT22;54092;53.088;8.850;2022-12-07T16:06:15;3.00;99.90
67163;DHT22;54092;53.088;8.850;2022-12-07T16:08:45;3.00;99.90
67163;DHT22;54092;53.088;8.850;2022-12-07T16:11:11;3.00;99.90
67163;DHT22;54092;53.088;8.850;2022-12-07T16:13:37;2.90;99.90
67163;DHT22;54092;53.088;8.850;2022-12-07T16:16:06;2.90;99.90
67163;DHT22;54092;53.088;8.850;2022-12-07T16:18:32;2.90;99.90
67163;DHT22;54092;53.088;8.850;2022-12-07T16:20:58;2.90;99.90
67163;DHT22;54092;53.088;8.850;2022-12-07T16:23:23;2.90;99.90
67163;DHT22;54092;53.088;8.850;2022-12-07T16:25:49;2.90;99.90
67163;DHT22;54092;53.088;8.850;2022-12-07T16:28:14;2.90;99.90
67163;DHT22;54092;53.088;8.850;2022-12-07T16:30:40;2.80;99.90
67163;DHT22;54092;53.088;8.850;2022-12-07T16:33:06;2.80;99.90
67163;DHT22;54092;53.088;8.850;2022-12-07T16:35:31;2.80;99.90
67163;DHT22;54092;53.088;8.850;2022-12-07T16:37:57;2.80;99.90
67163;DHT22;54092;53.088;8.850;2022-12-07T16:40:22;2.90;99.90
67163;DHT22;54092;53.088;8.850;2022-12-07T16:42:48;2.90;99.90
67163;DHT22;54092;53.088;8.850;2022-12-07T16:45:14;2.90;99.90
67163;DHT22;54092;53.088;8.850;2022-12-07T16:47:40;2.90;99.90
67163;DHT22;54092;53.088;8.850;2022-12-07T16:50:06;3.00;99.90
67163;DHT22;54092;53.088;8.850;2022-12-07T16:52:32;3.00;99.90
67163;DHT22;54092;53.088;8.850;2022-12-07T16:54:58;3.10;99.90
67163;DHT22;54092;53.088;8.850;2022-12-07T16:57:24;3.10;99.90
67163;DHT22;54092;53.088;8.850;2022-12-07T16:59:51;3.10;99.90
67163;DHT22;54092;53.088;8.850;2022-12-07T17:02:17;3.10;99.90
67163;DHT22;54092;53.088;8.850;2022-12-07T17:04:42;3.10;99.90
67163;DHT22;54092;53.088;8.850;2022-12-07T17:07:08;3.10;99.90
67163;DHT22;54092;53.088;8.850;2022-12-07T17:09:34;3.10;99.90
67163;DHT22;54092;53.088;8.850;2022-12-07T17:12:00;3.00;99.90
67163;DHT22;54092;53.088;8.850;2022-12-07T17:14:26;3.00;99.90
67163;DHT22;54092;53.088;8.850;2022-12-07T17:17:10;3.00;99.90
67163;DHT22;54092;53.088;8.850;2022-12-07T17:19:36;3.00;99.90
67163;DHT22;54092;53.088;8.850;2022-12-07T17:22:01;2.90;99.90
67163;DHT22;54092;53.088;8.850;2022-12-07T17:24:27;2.90;99.90
67163;DHT22;54092;53.088;8.850;2022-12-07T17:26:53;2.80;99.90
67163;DHT22;54092;53.088;8.850;2022-12-07T17:29:19;2.70;99.90
67163;DHT22;54092;53.088;8.850;2022-12-07T17:31:46;2.70;99.90
67163;DHT22;54092;53.088;8.850;2022-12-07T17:34:13;2.60;99.90
67163;DHT22;54092;53.088;8.850;2022-12-07T17:36:40;2.60;99.90
67163;DHT22;54092;53.088;8.850;2022-12-07T17:39:10;2.50;99.90
67163;DHT22;54092;53.088;8.850;2022-12-07T17:41:36;2.60;99.90
67163;DHT22;54092;53.088;8.850;2022-12-07T17:44:20;2.60;99.90
67163;DHT22;54092;53.088;8.850;2022-12-07T17:46:48;2.60;99.90